This is the latest recevied weather packets stored in our database for station/object HS9UAC-10. If no packets are shown the sender has not sent any weather packets the latest 10 day(s).
| Time | Temp. | Humidity | Pressure | Rain* | Wind** | Luminosity | Snow |
|---|---|---|---|---|---|---|---|
| 1778066984 | 36.11° C | 67% | 1005 hPa | - | - | 0 W/m² | - |
| 1778066398 | 36.11° C | 67% | 1004 hPa | - | - | 0 W/m² | - |
| 1778066143 | 36.11° C | 66% | 1004 hPa | - | - | 0 W/m² | - |
| 1778065218 | 36.67° C | 61% | 1004 hPa | - | - | 0 W/m² | - |
| 1778064294 | 37.78° C | 57% | 1004 hPa | - | - | 0 W/m² | - |
| 1778063369 | 38.89° C | 52% | 1004 hPa | - | - | 0 W/m² | - |
| 1778062444 | 38.89° C | 53% | 1004 hPa | - | - | 0 W/m² | - |
| 1778061520 | 40° C | 50% | 1004 hPa | - | - | 0 W/m² | - |
| 1778060595 | 41.11° C | 48% | 1004 hPa | - | - | 0 W/m² | - |
| 1778059671 | 42.78° C | 45% | 1004 hPa | - | - | 0 W/m² | - |
| 1778058747 | 45° C | 40% | 1004 hPa | - | - | 0 W/m² | - |
| 1778057821 | 43.33° C | 42% | 1004 hPa | - | - | 0 W/m² | - |
| 1778056897 | 43.89° C | 41% | 1004 hPa | - | - | 0 W/m² | - |
| 1778055972 | 43.89° C | 42% | 1004 hPa | - | - | 0 W/m² | - |
| 1778055047 | 43.33° C | 42% | 1004 hPa | - | - | 0 W/m² | - |
| 1778054123 | 41.67° C | 47% | 1005 hPa | - | - | 0 W/m² | - |
| 1778053198 | 40° C | 52% | 1005 hPa | - | - | 0 W/m² | - |
| 1778052273 | 39.44° C | 54% | 1005 hPa | - | - | 0 W/m² | - |
| 1778051348 | 38.89° C | 56% | 1005 hPa | - | - | 0 W/m² | - |
| 1778050424 | 38.89° C | 56% | 1005 hPa | - | - | 0 W/m² | - |
| 1778049499 | 39.44° C | 52% | 1006 hPa | - | - | 0 W/m² | - |
| 1778048575 | 38.89° C | 53% | 1006 hPa | - | - | 0 W/m² | - |
| 1778047650 | 40° C | 50% | 1006 hPa | - | - | 0 W/m² | - |
| 1778046725 | 38.89° C | 51% | 1007 hPa | - | - | 0 W/m² | - |
| 1778045801 | 38.89° C | 52% | 1007 hPa | - | - | 0 W/m² | - |
* Rain since midnight (hover to see other rain measurements)
** Current wind speed in m/s (hover to see current wind gust speed)